createdAt,value
2019-04-25T00:02:27.301Z,4.47
2019-04-25T00:04:57.758Z,3.20
2019-04-25T00:07:28.706Z,3.23
2019-04-25T00:09:59.404Z,1.87
2019-04-25T00:12:29.978Z,2.30
2019-04-25T00:15:01.357Z,1.83
2019-04-25T00:17:32.288Z,1.20
2019-04-25T00:20:02.863Z,1.60
2019-04-25T00:22:51.559Z,0.77
2019-04-25T00:25:33.745Z,1.43
2019-04-25T00:28:04.675Z,1.20
2019-04-25T00:30:35.251Z,0.90
2019-04-25T00:33:05.758Z,0.70
2019-04-25T00:35:36.264Z,0.60
2019-04-25T00:38:06.863Z,1.60
2019-04-25T00:40:37.436Z,0.70
2019-04-25T00:43:07.932Z,1.07
2019-04-25T00:45:38.425Z,0.70
2019-04-25T00:48:09.233Z,0.87
2019-04-25T00:50:39.811Z,0.90
2019-04-25T00:53:11.363Z,0.90
2019-04-25T00:55:43.043Z,0.78
2019-04-25T00:58:29.515Z,0.70
2019-04-25T01:01:18.530Z,0.60
2019-04-25T01:03:49.341Z,0.60
2019-04-25T01:06:19.881Z,0.60
2019-04-25T01:08:53.245Z,0.80
2019-04-25T01:11:22.598Z,0.60
2019-04-25T01:13:53.358Z,0.72
2019-04-25T01:16:23.842Z,0.60
2019-04-25T01:18:55.363Z,0.80
2019-04-25T01:21:26.125Z,1.17
2019-04-25T01:23:56.636Z,0.60
2019-04-25T01:26:27.125Z,1.00
2019-04-25T01:28:57.681Z,1.10
2019-04-25T01:31:29.844Z,1.10
2019-04-25T01:34:00.383Z,0.90
2019-04-25T01:36:41.408Z,0.80
2019-04-25T01:39:38.264Z,1.15
2019-04-25T01:42:31.493Z,1.32
2019-04-25T01:45:03.956Z,1.02
2019-04-25T01:47:34.294Z,1.12
2019-04-25T01:50:05.319Z,1.37
2019-04-25T01:52:35.846Z,1.25
2019-04-25T01:55:07.445Z,1.00
2019-04-25T01:57:37.945Z,1.10
2019-04-25T02:00:10.555Z,1.20
2019-04-25T02:02:41.078Z,1.20
2019-04-25T02:05:11.857Z,1.30
2019-04-25T02:07:42.474Z,1.20
2019-04-25T02:10:13.436Z,1.40
2019-04-25T02:12:49.644Z,1.07
2019-04-25T02:15:23.476Z,1.40
2019-04-25T02:17:56.882Z,1.50
2019-04-25T02:20:26.194Z,1.80
2019-04-25T02:22:56.698Z,2.50
2019-04-25T02:25:27.360Z,3.05
2019-04-25T02:28:01.104Z,3.40
2019-04-25T02:30:30.020Z,3.60
2019-04-25T02:33:06.223Z,3.90
2019-04-25T02:35:34.748Z,4.40
2019-04-25T02:38:08.917Z,4.70
2019-04-25T02:40:37.502Z,4.80
2019-04-25T02:43:08.387Z,5.12
2019-04-25T02:46:07.624Z,5.50
2019-04-25T02:49:08.816Z,6.30
2019-04-25T02:51:49.084Z,7.15
2019-04-25T02:54:19.557Z,8.10
2019-04-25T02:56:50.058Z,7.80
2019-04-25T02:59:20.578Z,7.65
2019-04-25T03:01:51.058Z,7.70
2019-04-25T03:04:21.565Z,7.72
2019-04-25T03:06:52.071Z,8.55
2019-04-25T03:09:24.842Z,8.30
2019-04-25T03:11:54.968Z,8.70
2019-04-25T03:14:26.779Z,8.55
2019-04-25T03:16:58.598Z,8.93
2019-04-25T03:19:47.184Z,9.63
2019-04-25T03:22:20.690Z,9.33
2019-04-25T03:24:51.499Z,10.20
2019-04-25T03:27:22.025Z,10.10
2019-04-25T03:29:54.102Z,10.13
2019-04-25T03:32:25.704Z,10.50
2019-04-25T03:34:57.102Z,11.15
2019-04-25T03:37:27.603Z,11.20
2019-04-25T03:39:58.165Z,10.88
2019-04-25T03:42:28.695Z,11.40
2019-04-25T03:44:59.207Z,10.97
2019-04-25T03:47:29.661Z,11.15
2019-04-25T03:50:00.205Z,10.93
2019-04-25T03:52:30.666Z,12.43
2019-04-25T03:55:02.358Z,10.72
2019-04-25T03:57:33.376Z,11.80
2019-04-25T04:00:06.213Z,11.97
2019-04-25T04:02:36.136Z,11.10
2019-04-25T04:05:08.391Z,10.80
2019-04-25T04:07:39.795Z,10.98
2019-04-25T04:10:10.769Z,12.03
2019-04-25T04:12:41.329Z,12.78
2019-04-25T04:15:14.361Z,12.13
2019-04-25T04:17:49.305Z,11.45
2019-04-25T04:20:39.486Z,10.63
2019-04-25T04:23:24.677Z,7.80
2019-04-25T04:25:55.250Z,9.38
2019-04-25T04:28:25.736Z,7.80
2019-04-25T04:30:56.195Z,7.85
2019-04-25T04:33:32.311Z,7.78
2019-04-25T04:35:58.942Z,10.30
2019-04-25T04:38:29.508Z,10.58
2019-04-25T04:40:59.962Z,11.90
2019-04-25T04:43:30.470Z,8.20
2019-04-25T04:46:00.982Z,6.08
2019-04-25T04:48:31.443Z,3.90
2019-04-25T04:51:03.360Z,4.90
2019-04-25T04:53:35.812Z,5.20
2019-04-25T04:56:06.187Z,7.00
2019-04-25T04:58:36.804Z,9.08
2019-04-25T05:01:07.298Z,8.37
2019-04-25T05:03:54.026Z,8.10
2019-04-25T05:06:46.445Z,9.73
2019-04-25T05:09:20.686Z,9.27
2019-04-25T05:11:51.109Z,10.70
2019-04-25T05:14:21.579Z,12.10
2019-04-25T05:16:53.267Z,12.13
2019-04-25T05:19:23.908Z,13.63
2019-04-25T05:21:54.343Z,12.30
2019-04-25T05:24:26.299Z,13.17
2019-04-25T05:26:56.998Z,13.33
2019-04-25T05:29:27.472Z,12.07
2019-04-25T05:31:57.971Z,11.23
2019-04-25T05:34:28.521Z,13.98
2019-04-25T05:36:59.028Z,14.00
2019-04-25T05:39:29.507Z,14.43
2019-04-25T05:42:18.531Z,13.50
2019-04-25T05:44:49.077Z,13.65
2019-04-25T05:47:21.162Z,12.78
2019-04-25T05:49:51.868Z,12.05
2019-04-25T05:52:24.007Z,12.30
2019-04-25T05:54:54.491Z,11.27
2019-04-25T05:57:26.037Z,10.38
2019-04-25T05:59:56.703Z,10.38
2019-04-25T06:02:27.809Z,10.60
2019-04-25T06:04:58.340Z,11.12
2019-04-25T06:07:28.831Z,9.80
2019-04-25T06:10:30.616Z,9.85
2019-04-25T06:13:19.998Z,7.87
2019-04-25T06:15:53.339Z,5.90
2019-04-25T06:18:43.841Z,5.00
2019-04-25T06:21:14.708Z,4.92
2019-04-25T06:23:54.633Z,4.78
2019-04-25T06:26:34.058Z,4.33
2019-04-25T06:28:59.689Z,4.53
2019-04-25T06:31:29.639Z,4.60
2019-04-25T06:34:00.246Z,4.12
2019-04-25T06:36:30.746Z,4.08
2019-04-25T06:39:01.311Z,3.62
2019-04-25T06:41:32.200Z,4.10
2019-04-25T06:44:04.338Z,3.95
2019-04-25T06:46:51.437Z,4.00
2019-04-25T06:49:27.947Z,3.20
2019-04-25T06:51:58.556Z,2.67
2019-04-25T06:54:29.581Z,3.50
2019-04-25T06:57:00.195Z,2.50
2019-04-25T06:59:30.645Z,2.50
2019-04-25T07:02:01.107Z,2.43
2019-04-25T07:04:31.597Z,2.00
2019-04-25T07:07:10.655Z,3.23
2019-04-25T07:09:35.013Z,3.20
2019-04-25T07:12:06.705Z,2.40
2019-04-25T07:14:37.599Z,2.23
2019-04-25T07:17:08.543Z,1.90
2019-04-25T07:19:40.246Z,2.03
2019-04-25T07:22:13.943Z,2.00
2019-04-25T07:24:44.789Z,2.20
2019-04-25T07:27:35.570Z,1.67
2019-04-25T07:30:43.720Z,1.70
2019-04-25T07:33:08.038Z,1.80
2019-04-25T07:35:39.606Z,2.00
2019-04-25T07:38:10.274Z,1.73
2019-04-25T07:40:41.146Z,1.67
2019-04-25T07:43:13.377Z,1.40
2019-04-25T07:45:45.257Z,2.07
2019-04-25T07:48:15.946Z,1.93
2019-04-25T07:50:47.981Z,2.17
2019-04-25T07:53:18.733Z,1.43
2019-04-25T07:55:49.366Z,1.17
2019-04-25T07:58:19.953Z,1.43
2019-04-25T08:00:51.570Z,1.60
2019-04-25T08:03:23.665Z,1.43
2019-04-25T08:05:54.814Z,1.43
2019-04-25T08:08:25.563Z,1.10
2019-04-25T08:11:05.222Z,1.43
2019-04-25T08:13:55.586Z,1.30
2019-04-25T08:16:29.705Z,1.30
2019-04-25T08:19:01.809Z,1.33
2019-04-25T08:21:34.423Z,0.87
2019-04-25T08:24:06.074Z,1.00
2019-04-25T08:26:37.564Z,1.40
2019-04-25T08:29:08.450Z,0.60
2019-04-25T08:31:39.431Z,1.00
2019-04-25T08:34:11.890Z,1.00
2019-04-25T08:36:45.408Z,1.00
2019-04-25T08:39:17.118Z,0.70
2019-04-25T08:41:49.510Z,0.90
2019-04-25T08:44:20.192Z,0.93
2019-04-25T08:46:53.579Z,0.70
2019-04-25T08:49:46.200Z,0.80
2019-04-25T08:52:17.913Z,0.90
2019-04-25T08:55:08.938Z,0.60
2019-04-25T08:58:03.721Z,0.50
2019-04-25T09:01:01.423Z,0.60
2019-04-25T09:03:40.274Z,0.50
2019-04-25T09:06:13.213Z,0.40
2019-04-25T09:08:46.426Z,0.40
2019-04-25T09:11:17.990Z,0.40
2019-04-25T09:13:48.581Z,0.60
2019-04-25T09:16:19.364Z,0.90
2019-04-25T09:18:50.328Z,0.60
2019-04-25T09:21:20.956Z,0.50
2019-04-25T09:23:53.478Z,0.50
2019-04-25T09:26:24.542Z,0.50
2019-04-25T09:28:55.568Z,0.50
2019-04-25T09:31:26.569Z,0.50
2019-04-25T09:33:58.025Z,0.50
2019-04-25T09:36:28.525Z,0.50
2019-04-25T09:39:03.778Z,0.50
2019-04-25T09:41:35.959Z,0.47
2019-04-25T09:44:08.349Z,0.60
2019-04-25T09:46:40.048Z,0.60
2019-04-25T09:49:20.265Z,0.50
2019-04-25T09:52:13.291Z,0.63
2019-04-25T09:54:59.636Z,0.50
2019-04-25T09:57:48.374Z,0.40
2019-04-25T10:00:29.782Z,0.40
2019-04-25T10:03:00.711Z,0.50
2019-04-25T10:05:31.374Z,0.80
2019-04-25T10:08:03.388Z,0.60
2019-04-25T10:10:34.195Z,0.50
2019-04-25T10:13:06.579Z,0.63
2019-04-25T10:15:57.727Z,0.50
2019-04-25T10:18:28.200Z,0.70
2019-04-25T10:20:58.688Z,1.10
2019-04-25T10:23:29.268Z,0.80
2019-04-25T10:25:59.853Z,0.60
2019-04-25T10:28:30.311Z,1.32
2019-04-25T10:31:00.833Z,0.73
2019-04-25T10:33:32.047Z,1.60
2019-04-25T10:36:04.110Z,0.70
2019-04-25T10:38:35.158Z,1.03
2019-04-25T10:41:05.972Z,0.80
2019-04-25T10:43:36.690Z,0.70
2019-04-25T10:46:07.543Z,0.75
2019-04-25T10:48:39.926Z,0.93
2019-04-25T10:51:10.726Z,0.70
2019-04-25T10:53:41.865Z,0.80
2019-04-25T10:56:14.124Z,0.60
2019-04-25T10:58:46.368Z,0.88
2019-04-25T11:01:17.296Z,0.70
2019-04-25T11:04:21.866Z,0.90
2019-04-25T11:06:52.622Z,1.00
2019-04-25T11:09:27.132Z,0.68
2019-04-25T11:11:57.741Z,1.00
2019-04-25T11:14:31.484Z,0.90
2019-04-25T11:17:02.051Z,0.88
2019-04-25T11:19:34.324Z,0.90
2019-04-25T11:22:06.737Z,1.00
2019-04-25T11:24:37.240Z,0.82
2019-04-25T11:27:07.996Z,1.15
2019-04-25T11:29:38.557Z,0.90
2019-04-25T11:32:09.316Z,1.00
2019-04-25T11:34:40.296Z,0.80
2019-04-25T11:37:10.836Z,0.98
2019-04-25T11:40:00.195Z,1.10
2019-04-25T11:42:30.814Z,0.90
2019-04-25T11:45:02.640Z,0.75
2019-04-25T11:47:33.590Z,1.10
2019-04-25T11:50:04.222Z,1.07
2019-04-25T11:52:34.848Z,1.20
2019-04-25T11:55:05.667Z,0.80
2019-04-25T11:57:36.217Z,0.70
2019-04-25T12:00:07.532Z,1.30
2019-04-25T12:02:38.025Z,1.37
2019-04-25T12:05:08.769Z,1.25
2019-04-25T12:07:39.299Z,1.10
2019-04-25T12:10:10.769Z,1.20
2019-04-25T12:12:41.332Z,1.30
2019-04-25T12:15:13.228Z,1.10
2019-04-25T12:17:44.890Z,1.30
2019-04-25T12:20:15.667Z,0.90
2019-04-25T12:22:46.619Z,1.00
2019-04-25T12:25:17.470Z,0.88
2019-04-25T12:27:49.795Z,0.90
2019-04-25T12:30:20.342Z,0.50
2019-04-25T12:32:52.295Z,0.80
2019-04-25T12:35:24.234Z,0.50
2019-04-25T12:37:55.254Z,0.83
2019-04-25T12:40:26.747Z,0.50
2019-04-25T12:42:57.277Z,0.60
2019-04-25T12:46:05.040Z,0.83
2019-04-25T12:48:35.664Z,0.60
2019-04-25T12:51:06.156Z,0.70
2019-04-25T12:53:36.666Z,0.50
2019-04-25T12:56:07.260Z,0.50
2019-04-25T12:58:37.918Z,0.60
2019-04-25T13:01:09.002Z,0.40
2019-04-25T13:03:39.597Z,0.50
2019-04-25T13:06:10.132Z,0.77
2019-04-25T13:08:40.619Z,0.70
2019-04-25T13:11:11.139Z,0.57
2019-04-25T13:13:43.509Z,0.53
2019-04-25T13:16:14.266Z,0.80
2019-04-25T13:18:44.801Z,1.10
2019-04-25T13:21:15.318Z,0.50
2019-04-25T13:23:45.814Z,0.50
2019-04-25T13:26:18.449Z,0.60
2019-04-25T13:29:01.062Z,0.70
2019-04-25T13:31:50.474Z,0.70
2019-04-25T13:34:35.994Z,0.77
2019-04-25T13:36:58.162Z,0.53
2019-04-25T13:39:28.680Z,0.60
2019-04-25T13:42:00.966Z,0.53
2019-04-25T13:44:31.399Z,0.70
2019-04-25T13:47:01.874Z,0.70
2019-04-25T13:49:32.387Z,0.57
2019-04-25T13:52:03.470Z,0.63
2019-04-25T13:54:35.059Z,0.80
2019-04-25T13:57:05.621Z,0.80
2019-04-25T13:59:36.202Z,1.20
2019-04-25T14:02:09.615Z,1.13
2019-04-25T14:04:40.145Z,1.90
2019-04-25T14:07:10.870Z,1.10
2019-04-25T14:09:43.068Z,1.27
2019-04-25T14:12:14.065Z,1.20
2019-04-25T14:14:44.789Z,0.80
2019-04-25T14:17:33.795Z,0.93
2019-04-25T14:20:24.587Z,1.80
2019-04-25T14:22:55.150Z,1.13
2019-04-25T14:25:27.316Z,0.70
2019-04-25T14:27:58.158Z,0.63
2019-04-25T14:30:32.139Z,0.67
2019-04-25T14:33:03.681Z,0.83
2019-04-25T14:35:34.544Z,0.70
2019-04-25T14:38:05.567Z,0.90
2019-04-25T14:40:36.199Z,0.60
2019-04-25T14:43:06.933Z,0.50
2019-04-25T14:45:44.531Z,0.67
2019-04-25T14:48:09.739Z,0.60
2019-04-25T14:50:40.207Z,0.73
2019-04-25T14:53:10.719Z,0.90
2019-04-25T14:55:52.055Z,1.00
2019-04-25T14:58:24.062Z,0.50
2019-04-25T15:00:54.772Z,0.93
2019-04-25T15:03:26.043Z,0.70
2019-04-25T15:05:56.550Z,0.57
2019-04-25T15:08:27.078Z,0.60
2019-04-25T15:10:57.643Z,0.80
2019-04-25T15:13:28.156Z,1.03
2019-04-25T15:15:58.679Z,0.63
2019-04-25T15:18:29.232Z,0.70
2019-04-25T15:20:59.776Z,0.80
2019-04-25T15:23:30.267Z,0.60
2019-04-25T15:26:00.863Z,0.60
2019-04-25T15:28:31.438Z,1.00
2019-04-25T15:31:01.953Z,0.80
2019-04-25T15:33:33.121Z,0.80
2019-04-25T15:36:35.631Z,0.50
2019-04-25T15:39:39.963Z,0.60
2019-04-25T15:42:29.447Z,0.70
2019-04-25T15:45:25.291Z,0.65
2019-04-25T15:47:57.024Z,1.00
2019-04-25T15:50:27.791Z,0.90
2019-04-25T15:52:58.199Z,0.53
2019-04-25T15:55:28.972Z,0.67
2019-04-25T15:57:59.497Z,0.70
2019-04-25T16:00:35.656Z,0.60
2019-04-25T16:03:06.952Z,0.50
2019-04-25T16:05:38.367Z,0.70
2019-04-25T16:08:08.992Z,0.50
2019-04-25T16:10:39.513Z,0.50
2019-04-25T16:13:10.124Z,0.53
2019-04-25T16:15:41.471Z,0.53
2019-04-25T16:18:12.329Z,0.40
2019-04-25T16:20:43.053Z,0.70
2019-04-25T16:23:13.954Z,0.60
2019-04-25T16:25:44.497Z,0.63
2019-04-25T16:28:14.972Z,0.70
2019-04-25T16:30:45.517Z,0.50
2019-04-25T16:33:16.112Z,0.60
2019-04-25T16:35:46.628Z,0.70
2019-04-25T16:38:18.727Z,0.40
2019-04-25T16:40:49.275Z,0.90
2019-04-25T16:43:24.326Z,1.10
2019-04-25T16:45:54.883Z,0.67
2019-04-25T16:48:25.480Z,0.80
2019-04-25T16:50:56.050Z,0.53
2019-04-25T16:53:26.602Z,0.50
2019-04-25T16:55:57.142Z,0.77
2019-04-25T16:58:28.599Z,0.87
2019-04-25T17:01:06.792Z,0.70
2019-04-25T17:03:37.786Z,0.83
2019-04-25T17:06:08.428Z,0.60
2019-04-25T17:08:40.163Z,0.50
2019-04-25T17:11:10.993Z,0.47
2019-04-25T17:13:47.683Z,0.50
2019-04-25T17:16:46.154Z,0.60
2019-04-25T17:19:21.497Z,0.60
2019-04-25T17:21:52.153Z,0.60
2019-04-25T17:24:22.581Z,0.60
2019-04-25T17:26:53.056Z,0.50
2019-04-25T17:29:23.561Z,1.07
2019-04-25T17:32:19.343Z,0.50
2019-04-25T17:35:03.692Z,0.67
2019-04-25T17:37:53.127Z,0.70
2019-04-25T17:40:30.142Z,0.60
2019-04-25T17:43:10.448Z,0.77
2019-04-25T17:45:34.762Z,0.70
2019-04-25T17:48:05.513Z,0.50
2019-04-25T17:50:36.125Z,0.60
2019-04-25T17:53:06.760Z,0.70
2019-04-25T17:55:37.457Z,0.70
2019-04-25T17:58:07.941Z,0.80
2019-04-25T18:00:40.622Z,0.50
2019-04-25T18:03:12.293Z,0.40
2019-04-25T18:05:42.824Z,0.50
2019-04-25T18:08:13.389Z,0.50
2019-04-25T18:10:44.749Z,0.47
2019-04-25T18:13:15.305Z,0.60
2019-04-25T18:15:58.107Z,0.53
2019-04-25T18:18:47.517Z,0.73
2019-04-25T18:21:18.054Z,0.60
2019-04-25T18:24:25.953Z,0.97
2019-04-25T18:27:15.406Z,0.50
2019-04-25T18:29:46.326Z,0.40
2019-04-25T18:32:16.935Z,0.90
2019-04-25T18:35:07.897Z,0.50
2019-04-25T18:38:00.117Z,0.50
2019-04-25T18:40:37.551Z,0.60
2019-04-25T18:43:16.864Z,0.67
2019-04-25T18:45:50.584Z,0.50
2019-04-25T18:48:21.159Z,0.70
2019-04-25T18:50:51.664Z,0.70
2019-04-25T18:53:40.773Z,0.77
2019-04-25T18:56:45.896Z,0.80
2019-04-25T18:59:31.344Z,0.60
2019-04-25T19:02:29.789Z,0.70
2019-04-25T19:05:15.607Z,0.47
2019-04-25T19:07:46.090Z,0.70
2019-04-25T19:10:16.802Z,0.80
2019-04-25T19:12:47.418Z,0.60
2019-04-25T19:15:17.956Z,0.60
2019-04-25T19:17:48.470Z,1.07
2019-04-25T19:20:19.035Z,0.70
2019-04-25T19:22:49.636Z,0.53
2019-04-25T19:25:20.271Z,0.57
2019-04-25T19:27:51.055Z,0.90
2019-04-25T19:30:21.718Z,0.80
2019-04-25T19:32:52.193Z,0.63
2019-04-25T19:35:22.811Z,0.60
2019-04-25T19:37:55.652Z,0.90
2019-04-25T19:40:35.710Z,0.70
2019-04-25T19:43:17.528Z,0.60
2019-04-25T19:45:48.988Z,0.70
2019-04-25T19:48:19.659Z,0.50
2019-04-25T19:50:50.653Z,0.80
2019-04-25T19:53:21.307Z,1.03
2019-04-25T19:55:51.863Z,0.70
2019-04-25T19:58:22.355Z,0.60
2019-04-25T20:00:52.988Z,0.53
2019-04-25T20:03:47.302Z,0.80
2019-04-25T20:06:26.911Z,1.00
2019-04-25T20:09:03.259Z,0.83
2019-04-25T20:11:40.898Z,0.80
2019-04-25T20:14:11.389Z,0.70
2019-04-25T20:16:46.042Z,0.73
2019-04-25T20:19:16.769Z,0.83
2019-04-25T20:21:47.933Z,0.70
2019-04-25T20:24:18.502Z,0.90
2019-04-25T20:26:49.004Z,0.70
2019-04-25T20:29:19.487Z,0.60
2019-04-25T20:31:50.668Z,0.77
2019-04-25T20:34:21.284Z,0.70
2019-04-25T20:36:51.835Z,0.67
2019-04-25T20:39:22.342Z,0.80
2019-04-25T20:41:53.931Z,0.80
2019-04-25T20:44:24.392Z,0.83
2019-04-25T20:46:54.915Z,0.53
2019-04-25T20:49:25.372Z,1.00
2019-04-25T20:51:56.842Z,0.57
2019-04-25T20:54:27.345Z,0.80
2019-04-25T20:56:57.842Z,0.70
2019-04-25T20:59:28.342Z,1.00
2019-04-25T21:01:58.955Z,0.60
2019-04-25T21:04:44.594Z,1.43
2019-04-25T21:07:15.075Z,0.73
2019-04-25T21:09:45.795Z,1.00
2019-04-25T21:12:16.315Z,1.13
2019-04-25T21:15:09.731Z,0.77
2019-04-25T21:17:52.292Z,0.63
2019-04-25T21:20:23.004Z,1.10
2019-04-25T21:22:53.801Z,1.20
2019-04-25T21:25:24.265Z,0.60
2019-04-25T21:27:54.773Z,0.80
2019-04-25T21:30:25.254Z,0.80
2019-04-25T21:32:57.208Z,0.87
2019-04-25T21:35:28.116Z,1.00
2019-04-25T21:37:59.563Z,0.67
2019-04-25T21:40:55.737Z,0.90
2019-04-25T21:43:32.279Z,0.70
2019-04-25T21:46:03.081Z,0.50
2019-04-25T21:48:33.850Z,0.80
2019-04-25T21:51:23.541Z,0.80
2019-04-25T21:53:54.349Z,0.70
2019-04-25T21:56:25.713Z,0.70
2019-04-25T21:58:56.291Z,0.97
2019-04-25T22:01:33.028Z,0.60
2019-04-25T22:04:03.460Z,0.80
2019-04-25T22:06:34.203Z,0.60
2019-04-25T22:09:07.813Z,0.63
2019-04-25T22:11:38.371Z,0.93
2019-04-25T22:14:09.486Z,0.80
2019-04-25T22:16:40.432Z,1.40
2019-04-25T22:19:11.350Z,0.77
2019-04-25T22:21:42.026Z,0.70
2019-04-25T22:24:15.227Z,0.83
2019-04-25T22:26:45.536Z,0.70
2019-04-25T22:29:16.121Z,0.80
2019-04-25T22:31:55.566Z,1.20
2019-04-25T22:34:31.985Z,0.70
2019-04-25T22:37:02.496Z,1.20
2019-04-25T22:39:32.953Z,0.87
2019-04-25T22:42:03.901Z,0.93
2019-04-25T22:44:34.806Z,1.00
2019-04-25T22:47:06.735Z,0.90
2019-04-25T22:49:37.203Z,0.70
2019-04-25T22:52:09.114Z,0.60
2019-04-25T22:54:39.696Z,0.73
2019-04-25T22:57:10.149Z,0.80
2019-04-25T22:59:40.937Z,1.03
2019-04-25T23:02:36.091Z,0.77
2019-04-25T23:05:35.232Z,1.00
2019-04-25T23:08:06.725Z,0.80
2019-04-25T23:10:37.205Z,0.90
2019-04-25T23:13:08.736Z,0.60
2019-04-25T23:15:39.326Z,0.83
2019-04-25T23:18:09.968Z,0.70
2019-04-25T23:20:40.475Z,0.80
2019-04-25T23:23:11.732Z,1.40
2019-04-25T23:26:06.117Z,1.37
2019-04-25T23:28:39.843Z,0.83
2019-04-25T23:31:18.177Z,0.97
2019-04-25T23:33:48.652Z,1.20
2019-04-25T23:36:19.467Z,0.70
2019-04-25T23:38:49.990Z,0.83
2019-04-25T23:41:20.738Z,0.97
2019-04-25T23:43:51.267Z,1.00
2019-04-25T23:46:21.760Z,1.00
2019-04-25T23:48:52.236Z,1.00
2019-04-25T23:51:22.709Z,0.73
2019-04-25T23:53:53.435Z,1.00
2019-04-25T23:56:23.932Z,1.33
2019-04-25T23:58:54.663Z,1.10
